Time;durP1;ratioP1;P1;durP2;ratioP2;P2;SDS_P1;SDS_P2;PMS_P1;PMS_P2;Temp;Humidity;BMP_temperature;BMP_pressure;BME280_temperature;BME280_humidity;BME280_pressure;Samples;Min_cycle;Max_cycle;Signal;HPM_P1;HPM_P2
2021/11/23 00:00:56;;;;;;;0.10;0.10;;;2.80;99.90;;;;;;5103577;28;20193;-82
2021/11/23 00:03:22;;;;;;;0.27;0.27;;;2.80;99.90;;;;;;5105809;28;20180;-81
2021/11/23 00:05:49;;;;;;;0.33;0.30;;;2.80;99.90;;;;;;5104482;28;20242;-83
2021/11/23 00:08:15;;;;;;;0.10;0.10;;;2.80;99.90;;;;;;5112199;28;20180;-82
2021/11/23 00:10:42;;;;;;;0.20;0.20;;;2.80;99.90;;;;;;5103291;28;20217;-82
2021/11/23 00:13:09;;;;;;;0.10;0.10;;;2.80;99.90;;;;;;5105229;28;20185;-82
2021/11/23 00:15:35;;;;;;;0.10;0.10;;;2.80;99.90;;;;;;5108486;28;20193;-81
2021/11/23 00:18:05;;;;;;;0.10;0.10;;;2.70;99.90;;;;;;5108470;28;20204;-82
2021/11/23 00:20:32;;;;;;;0.10;0.10;;;2.70;99.90;;;;;;5098539;28;20554;-82
2021/11/23 00:22:57;;;;;;;0.10;0.10;;;2.70;99.90;;;;;;5106430;28;20194;-82
2021/11/23 00:25:23;;;;;;;0.10;0.10;;;2.70;99.90;;;;;;5111818;28;20208;-82
2021/11/23 00:27:48;;;;;;;0.10;0.10;;;2.60;99.90;;;;;;5108434;28;20190;-81
2021/11/23 00:30:14;;;;;;;0.10;0.10;;;2.60;99.90;;;;;;5106639;28;20663;-82
2021/11/23 00:32:39;;;;;;;0.10;0.10;;;2.50;99.90;;;;;;5105314;28;20590;-81
2021/11/23 00:35:05;;;;;;;0.17;0.17;;;2.60;99.90;;;;;;5103973;28;20663;-82
2021/11/23 00:37:31;;;;;;;0.10;0.10;;;2.50;99.90;;;;;;5104125;28;20232;-81
2021/11/23 00:39:57;;;;;;;0.17;0.17;;;2.60;99.90;;;;;;5100709;28;20182;-82
2021/11/23 00:42:24;;;;;;;0.10;0.10;;;2.60;99.90;;;;;;5098994;28;20204;-82
2021/11/23 00:44:50;;;;;;;0.10;0.10;;;2.50;99.90;;;;;;5107097;28;20176;-82
2021/11/23 00:47:16;;;;;;;0.03;0.03;;;2.60;99.90;;;;;;5094528;28;20188;-81
2021/11/23 00:49:41;;;;;;;0.10;0.10;;;2.60;99.90;;;;;;5090101;28;20262;-81
2021/11/23 00:52:07;;;;;;;0.10;0.10;;;2.60;99.90;;;;;;5094426;28;20206;-81
2021/11/23 00:54:32;;;;;;;0.10;0.10;;;2.50;99.90;;;;;;5103574;28;20189;-81
2021/11/23 00:56:58;;;;;;;0.10;0.10;;;2.60;99.90;;;;;;5102194;28;20210;-82
2021/11/23 00:59:24;;;;;;;0.00;0.00;;;2.50;99.90;;;;;;5069732;28;20207;-80
2021/11/23 01:01:50;;;;;;;0.10;0.10;;;2.50;99.90;;;;;;5072980;28;20214;-82
2021/11/23 01:04:15;;;;;;;0.17;0.17;;;2.50;99.90;;;;;;5077028;28;20268;-81
2021/11/23 01:06:41;;;;;;;0.27;0.20;;;2.50;99.90;;;;;;5078974;28;20194;-81
2021/11/23 01:09:07;;;;;;;0.10;0.10;;;2.40;99.90;;;;;;5079435;28;20547;-81
2021/11/23 01:11:32;;;;;;;0.20;0.20;;;2.50;99.90;;;;;;5068231;28;20208;-81
2021/11/23 01:13:58;;;;;;;0.03;0.03;;;2.50;99.90;;;;;;5080896;28;20764;-82
2021/11/23 01:16:23;;;;;;;0.10;0.10;;;2.50;99.90;;;;;;5083951;28;20267;-81
2021/11/23 01:18:49;;;;;;;0.10;0.10;;;2.50;99.90;;;;;;5083810;28;20191;-81
2021/11/23 01:21:15;;;;;;;0.40;0.40;;;2.50;99.90;;;;;;5077444;28;20195;-81
2021/11/23 01:23:41;;;;;;;0.10;0.10;;;2.50;99.90;;;;;;5079179;28;20721;-82
2021/11/23 01:26:07;;;;;;;0.17;0.17;;;2.60;99.90;;;;;;5083690;28;20182;-82
2021/11/23 01:28:33;;;;;;;0.10;0.10;;;2.50;99.90;;;;;;5082184;28;20218;-80
2021/11/23 01:31:00;;;;;;;0.10;0.10;;;2.50;99.90;;;;;;5080949;28;20260;-81
2021/11/23 01:33:27;;;;;;;0.10;0.10;;;2.50;99.90;;;;;;5083581;28;20175;-82
2021/11/23 01:35:53;;;;;;;0.00;0.00;;;2.50;99.90;;;;;;5087029;28;20180;-81
2021/11/23 01:38:20;;;;;;;0.00;0.00;;;2.40;99.90;;;;;;5074680;28;20209;-82
2021/11/23 01:40:46;;;;;;;0.00;0.00;;;2.40;99.90;;;;;;5082975;28;20275;-81
2021/11/23 01:48:19;;;;;;;0.53;0.10;;;2.30;99.90;;;;;;5109936;22;20255;-86
2021/11/23 01:50:45;;;;;;;0.10;0.10;;;2.40;99.90;;;;;;5027951;28;20742;-86
2021/11/23 01:53:11;;;;;;;0.00;0.00;;;2.40;99.90;;;;;;5024921;28;20203;-85
2021/11/23 01:55:40;;;;;;;0.40;0.40;;;2.40;99.90;;;;;;5025527;28;20174;-86
2021/11/23 01:58:07;;;;;;;0.00;0.00;;;2.40;99.90;;;;;;5032959;28;20279;-86
2021/11/23 02:00:34;;;;;;;0.07;0.07;;;2.30;99.90;;;;;;5036265;28;20222;-86
2021/11/23 02:02:59;;;;;;;0.10;0.10;;;2.20;99.90;;;;;;5037111;28;20229;-86
2021/11/23 02:05:26;;;;;;;0.10;0.10;;;2.20;99.90;;;;;;5049108;28;20214;-86
2021/11/23 02:07:51;;;;;;;0.20;0.20;;;2.20;99.90;;;;;;5037121;28;20203;-86
2021/11/23 02:10:17;;;;;;;1.60;0.20;;;2.20;99.90;;;;;;5041206;28;20589;-86
2021/11/23 02:12:43;;;;;;;0.30;0.30;;;2.20;99.90;;;;;;5033003;28;20786;-85
2021/11/23 02:15:10;;;;;;;0.10;0.10;;;2.20;99.90;;;;;;5038136;28;20537;-86
2021/11/23 02:17:36;;;;;;;0.10;0.10;;;2.20;99.90;;;;;;5036828;28;20300;-85
2021/11/23 02:20:03;;;;;;;0.10;0.10;;;2.20;99.90;;;;;;5036715;28;20667;-86
2021/11/23 02:22:29;;;;;;;0.10;0.10;;;2.20;99.90;;;;;;5047789;28;20651;-86
2021/11/23 02:24:54;;;;;;;0.13;0.13;;;2.20;99.90;;;;;;5037842;28;20175;-86
2021/11/23 02:27:21;;;;;;;0.10;0.10;;;2.20;99.90;;;;;;5035474;28;20671;-86
2021/11/23 02:29:46;;;;;;;0.10;0.10;;;2.20;99.90;;;;;;5035101;28;20216;-86
2021/11/23 02:32:12;;;;;;;0.00;0.00;;;2.20;99.90;;;;;;5041739;28;20216;-86
2021/11/23 02:34:37;;;;;;;0.10;0.10;;;2.10;99.90;;;;;;5031948;28;20241;-85
2021/11/23 02:37:03;;;;;;;0.03;0.03;;;2.00;99.90;;;;;;5032252;28;20247;-84
2021/11/23 02:39:29;;;;;;;0.10;0.10;;;1.80;99.90;;;;;;5038679;28;20188;-85
2021/11/23 02:41:54;;;;;;;0.10;0.10;;;1.70;99.90;;;;;;5040025;28;20173;-86
2021/11/23 02:44:20;;;;;;;0.13;0.13;;;1.70;99.90;;;;;;5035583;28;20175;-86
2021/11/23 02:46:46;;;;;;;0.10;0.10;;;1.70;99.90;;;;;;5032536;28;20207;-86
2021/11/23 02:49:11;;;;;;;0.20;0.20;;;1.80;99.90;;;;;;5047424;28;20200;-86
2021/11/23 02:51:38;;;;;;;0.10;0.10;;;1.80;99.90;;;;;;5062334;28;20187;-85
2021/11/23 02:54:04;;;;;;;0.10;0.10;;;1.70;99.90;;;;;;5036740;28;20202;-85
2021/11/23 02:56:30;;;;;;;0.23;0.23;;;1.70;99.90;;;;;;5028296;28;20215;-86
2021/11/23 02:58:55;;;;;;;0.30;0.17;;;1.70;99.90;;;;;;5036885;28;20191;-86
2021/11/23 03:01:24;;;;;;;0.10;0.10;;;1.70;99.90;;;;;;5021108;28;20171;-86
2021/11/23 03:03:51;;;;;;;0.50;0.10;;;1.70;99.90;;;;;;5047860;28;20178;-86
2021/11/23 03:06:17;;;;;;;0.10;0.10;;;1.70;99.90;;;;;;5034064;28;20205;-86
2021/11/23 03:08:45;;;;;;;0.13;0.13;;;1.70;99.90;;;;;;5033290;28;20194;-86
2021/11/23 03:11:10;;;;;;;0.00;0.00;;;1.70;99.90;;;;;;5031014;28;20209;-85
2021/11/23 03:13:36;;;;;;;0.20;0.20;;;1.80;99.90;;;;;;5036594;28;20257;-85
2021/11/23 03:16:05;;;;;;;0.10;0.10;;;1.80;99.90;;;;;;5053003;28;20279;-86
2021/11/23 03:18:31;;;;;;;0.10;0.10;;;1.80;99.90;;;;;;5030716;28;20181;-86
2021/11/23 03:20:57;;;;;;;0.00;0.00;;;1.70;99.90;;;;;;5049996;28;20174;-85
2021/11/23 03:23:22;;;;;;;0.10;0.10;;;1.80;99.90;;;;;;5049617;28;20187;-86
2021/11/23 03:25:48;;;;;;;0.10;0.10;;;1.80;99.90;;;;;;5029073;28;20189;-86
2021/11/23 03:28:14;;;;;;;0.33;0.20;;;1.70;99.90;;;;;;5058157;28;20290;-85
2021/11/23 03:30:41;;;;;;;0.10;0.10;;;1.80;99.90;;;;;;5034392;28;20639;-86
2021/11/23 03:33:07;;;;;;;0.60;0.60;;;1.80;99.90;;;;;;5025248;28;20670;-85
2021/11/23 03:35:39;;;;;;;0.10;0.10;;;1.70;99.90;;;;;;5045339;28;20229;-85
2021/11/23 03:38:07;;;;;;;0.20;0.20;;;1.70;99.90;;;;;;5032465;28;20209;-86
2021/11/23 03:40:35;;;;;;;0.10;0.10;;;1.70;99.90;;;;;;5052596;28;20299;-86
2021/11/23 03:43:02;;;;;;;0.20;0.20;;;1.70;99.90;;;;;;5031273;28;20184;-86
2021/11/23 03:45:28;;;;;;;0.10;0.10;;;1.60;99.90;;;;;;5025614;28;20178;-85
2021/11/23 03:47:54;;;;;;;0.70;0.70;;;1.60;99.90;;;;;;5024340;28;20223;-85
2021/11/23 03:50:21;;;;;;;0.10;0.10;;;1.50;99.90;;;;;;5026412;28;20209;-86
2021/11/23 03:52:48;;;;;;;0.10;0.10;;;1.50;99.90;;;;;;5040505;28;20181;-86
2021/11/23 03:55:16;;;;;;;0.17;0.17;;;1.30;99.90;;;;;;5031146;28;20241;-85
2021/11/23 03:57:44;;;;;;;0.10;0.10;;;1.20;99.90;;;;;;5036277;28;20228;-85
2021/11/23 04:00:12;;;;;;;0.07;0.07;;;1.10;99.90;;;;;;5036189;28;20186;-85
2021/11/23 04:02:39;;;;;;;0.20;0.20;;;1.00;99.90;;;;;;5025488;28;20229;-85
2021/11/23 04:05:06;;;;;;;0.30;0.30;;;0.90;99.90;;;;;;5035309;28;20177;-86
2021/11/23 04:07:31;;;;;;;0.10;0.10;;;0.90;99.90;;;;;;5034542;28;20584;-86
2021/11/23 04:09:58;;;;;;;0.00;0.00;;;0.90;99.90;;;;;;5034226;28;20194;-85
2021/11/23 04:12:23;;;;;;;0.10;0.10;;;0.90;99.90;;;;;;5025888;28;20561;-85
2021/11/23 04:14:49;;;;;;;0.10;0.10;;;0.80;99.90;;;;;;5044300;28;20196;-86
2021/11/23 04:17:15;;;;;;;0.00;0.00;;;0.80;99.90;;;;;;5023635;28;20226;-85
2021/11/23 04:19:40;;;;;;;0.10;0.10;;;0.70;99.90;;;;;;5030753;28;20556;-85
2021/11/23 04:22:07;;;;;;;0.07;0.07;;;0.80;99.90;;;;;;5029713;28;20174;-85
2021/11/23 04:24:33;;;;;;;0.27;0.10;;;0.70;99.90;;;;;;5034543;28;20188;-85
2021/11/23 04:26:59;;;;;;;0.10;0.10;;;0.70;99.90;;;;;;5034098;28;20209;-85
2021/11/23 04:29:25;;;;;;;0.20;0.20;;;0.80;99.90;;;;;;5030055;28;20179;-86
2021/11/23 04:31:51;;;;;;;0.03;0.03;;;0.80;99.90;;;;;;5042146;28;20179;-84
2021/11/23 04:34:16;;;;;;;0.00;0.00;;;0.70;99.90;;;;;;5025918;28;20185;-86
2021/11/23 04:36:42;;;;;;;0.20;0.17;;;0.80;99.90;;;;;;5045065;28;20214;-85
2021/11/23 04:39:10;;;;;;;0.10;0.10;;;0.80;99.90;;;;;;5029209;28;20183;-86
2021/11/23 04:41:35;;;;;;;0.00;0.00;;;0.90;99.90;;;;;;5034447;28;20636;-86
2021/11/23 04:44:02;;;;;;;0.10;0.10;;;1.00;99.90;;;;;;5050255;28;20175;-85
2021/11/23 04:46:27;;;;;;;0.10;0.10;;;1.00;99.90;;;;;;5044555;28;20257;-85
2021/11/23 04:48:53;;;;;;;0.20;0.20;;;1.00;99.90;;;;;;5034114;28;20198;-85
2021/11/23 04:51:20;;;;;;;0.07;0.07;;;0.90;99.90;;;;;;5033268;28;20328;-85
2021/11/23 04:53:46;;;;;;;0.00;0.00;;;0.80;99.90;;;;;;5026244;28;20216;-85
2021/11/23 04:56:11;;;;;;;0.10;0.10;;;0.80;99.90;;;;;;5026427;28;20606;-85
2021/11/23 04:58:37;;;;;;;0.10;0.10;;;0.80;99.90;;;;;;5030439;28;20652;-84
2021/11/23 05:01:03;;;;;;;0.00;0.00;;;0.80;99.90;;;;;;5047698;28;20177;-85
2021/11/23 05:03:28;;;;;;;0.13;0.13;;;0.90;99.90;;;;;;5024271;28;20183;-85
2021/11/23 05:05:54;;;;;;;0.10;0.10;;;1.00;99.90;;;;;;5051724;28;20585;-85
2021/11/23 05:08:19;;;;;;;0.20;0.20;;;1.00;99.90;;;;;;5024971;28;20206;-85
2021/11/23 05:10:45;;;;;;;0.10;0.10;;;1.10;99.90;;;;;;5046259;28;20548;-85
2021/11/23 05:13:10;;;;;;;0.10;0.10;;;1.10;99.90;;;;;;5040172;28;20186;-85
2021/11/23 05:15:36;;;;;;;0.00;0.00;;;1.10;99.90;;;;;;5033351;28;20186;-85
2021/11/23 05:18:02;;;;;;;0.10;0.10;;;1.10;99.90;;;;;;5050385;28;21257;-85
2021/11/23 05:20:27;;;;;;;0.10;0.10;;;1.10;99.90;;;;;;5032706;28;20180;-85
2021/11/23 05:22:53;;;;;;;0.40;0.40;;;1.20;99.90;;;;;;5025835;28;20181;-85
2021/11/23 05:25:19;;;;;;;0.10;0.10;;;1.10;99.90;;;;;;5032428;28;20239;-85
2021/11/23 05:27:44;;;;;;;0.10;0.10;;;1.10;99.90;;;;;;5033571;28;20213;-85
2021/11/23 05:30:11;;;;;;;0.10;0.10;;;1.10;99.90;;;;;;5025721;28;20170;-85
2021/11/23 05:32:38;;;;;;;0.10;0.10;;;1.10;99.90;;;;;;5031725;28;20178;-85
2021/11/23 05:35:04;;;;;;;0.10;0.10;;;1.10;99.90;;;;;;5037308;28;20193;-85
2021/11/23 05:37:31;;;;;;;0.30;0.30;;;1.10;99.90;;;;;;5054947;28;20205;-85
2021/11/23 05:39:57;;;;;;;0.10;0.10;;;1.20;99.90;;;;;;5034843;28;20202;-85
2021/11/23 05:42:22;;;;;;;0.10;0.10;;;1.30;99.90;;;;;;5033226;28;20213;-85
2021/11/23 05:44:48;;;;;;;0.10;0.10;;;1.30;99.90;;;;;;5036538;28;20174;-85
2021/11/23 05:47:14;;;;;;;0.10;0.10;;;1.40;99.90;;;;;;5037816;28;20201;-85
2021/11/23 05:49:41;;;;;;;0.27;0.27;;;1.30;99.90;;;;;;5033741;28;20284;-85
2021/11/23 05:52:08;;;;;;;0.10;0.10;;;1.30;99.90;;;;;;5036087;28;20186;-86
2021/11/23 05:54:33;;;;;;;0.20;0.20;;;1.30;99.90;;;;;;5036433;28;20224;-86
2021/11/23 05:56:59;;;;;;;0.10;0.10;;;1.30;99.90;;;;;;5032878;28;20234;-85
2021/11/23 05:59:25;;;;;;;0.63;0.10;;;1.40;99.90;;;;;;5037496;28;20212;-86
2021/11/23 06:01:50;;;;;;;0.20;0.20;;;1.40;99.90;;;;;;5055525;28;20197;-86
2021/11/23 06:04:16;;;;;;;0.10;0.10;;;1.30;99.90;;;;;;5047150;28;20178;-86
2021/11/23 06:06:41;;;;;;;0.10;0.10;;;1.30;99.90;;;;;;5035703;28;20238;-85
2021/11/23 06:09:07;;;;;;;0.33;0.33;;;1.30;99.90;;;;;;5052917;28;20178;-83
2021/11/23 06:11:33;;;;;;;0.20;0.20;;;1.30;99.90;;;;;;5053442;28;20696;-83
2021/11/23 06:13:59;;;;;;;0.10;0.10;;;1.30;99.90;;;;;;5035875;28;20182;-82
2021/11/23 06:16:26;;;;;;;0.00;0.00;;;1.30;99.90;;;;;;5030523;28;20316;-82
2021/11/23 06:18:52;;;;;;;0.77;0.77;;;1.30;99.90;;;;;;5036545;28;20541;-82
2021/11/23 06:21:19;;;;;;;2.00;0.60;;;1.20;99.90;;;;;;5035211;28;20186;-84
2021/11/23 06:23:45;;;;;;;0.50;0.50;;;1.30;99.90;;;;;;5056282;28;20182;-83
2021/11/23 06:26:17;;;;;;;1.03;0.93;;;1.30;99.90;;;;;;5032946;28;20655;-85
2021/11/23 06:28:42;;;;;;;0.10;0.10;;;1.30;99.90;;;;;;5045075;28;20187;-85
2021/11/23 06:31:11;;;;;;;0.73;0.70;;;1.20;99.90;;;;;;5033096;28;20225;-85
2021/11/23 06:33:37;;;;;;;0.10;0.10;;;1.20;99.90;;;;;;5035939;28;20177;-86
2021/11/23 06:36:02;;;;;;;0.10;0.10;;;1.20;99.90;;;;;;5039383;28;20229;-85
2021/11/23 06:38:28;;;;;;;0.10;0.10;;;1.30;99.90;;;;;;5050470;28;20210;-86
2021/11/23 06:40:54;;;;;;;0.10;0.10;;;1.30;99.90;;;;;;5030024;28;20180;-82
2021/11/23 06:43:19;;;;;;;0.10;0.10;;;1.20;99.90;;;;;;5059187;28;20268;-88
2021/11/23 06:45:46;;;;;;;0.10;0.10;;;1.00;99.90;;;;;;5035086;28;20178;-81
2021/11/23 06:48:12;;;;;;;0.97;0.20;;;1.10;99.90;;;;;;5034551;28;20222;-82
2021/11/23 06:50:39;;;;;;;0.30;0.30;;;1.10;99.90;;;;;;5031867;28;20645;-81
2021/11/23 06:53:08;;;;;;;0.10;0.10;;;1.10;99.90;;;;;;5031393;28;20206;-82
2021/11/23 06:55:35;;;;;;;0.23;0.20;;;1.00;99.90;;;;;;5048597;28;20190;-82
2021/11/23 06:58:00;;;;;;;0.10;0.10;;;1.10;99.90;;;;;;5030622;28;20705;-82
2021/11/23 07:00:27;;;;;;;0.10;0.10;;;1.20;99.90;;;;;;5034862;28;20178;-82
2021/11/23 07:02:52;;;;;;;0.10;0.10;;;1.20;99.90;;;;;;5053550;28;20176;-82
2021/11/23 07:05:18;;;;;;;0.17;0.17;;;1.20;99.90;;;;;;5031666;28;20181;-82
2021/11/23 07:07:43;;;;;;;0.10;0.10;;;1.20;99.90;;;;;;5055035;28;20224;-83
2021/11/23 07:10:11;;;;;;;0.10;0.10;;;1.30;99.90;;;;;;5065597;28;20185;-83
2021/11/23 07:12:37;;;;;;;0.63;0.50;;;1.30;99.90;;;;;;5037307;28;20714;-83
2021/11/23 07:15:04;;;;;;;0.10;0.10;;;1.30;99.90;;;;;;5054627;28;20267;-82
2021/11/23 07:17:29;;;;;;;0.10;0.10;;;1.30;99.90;;;;;;5037077;28;20218;-83
2021/11/23 07:19:55;;;;;;;0.53;0.20;;;1.10;99.90;;;;;;5032987;28;20186;-82
2021/11/23 07:22:21;;;;;;;0.20;0.20;;;1.10;99.90;;;;;;5053420;28;20206;-83
2021/11/23 07:24:46;;;;;;;0.27;0.20;;;1.30;99.90;;;;;;5032107;28;20170;-83
2021/11/23 07:27:12;;;;;;;0.23;0.23;;;1.40;99.90;;;;;;5028078;28;20206;-83
2021/11/23 07:29:38;;;;;;;0.30;0.30;;;1.40;99.90;;;;;;5034061;28;20182;-83
2021/11/23 07:32:04;;;;;;;0.20;0.20;;;1.30;99.90;;;;;;5036116;28;20555;-83
2021/11/23 07:34:29;;;;;;;0.10;0.10;;;1.40;99.90;;;;;;5046514;28;20178;-83
2021/11/23 07:36:55;;;;;;;0.27;0.27;;;1.40;99.90;;;;;;5030831;28;20207;-83
2021/11/23 07:39:21;;;;;;;0.20;0.20;;;1.30;99.90;;;;;;5026220;28;20174;-83
2021/11/23 07:41:46;;;;;;;0.10;0.10;;;1.30;99.90;;;;;;5032409;28;20301;-84
2021/11/23 07:44:12;;;;;;;0.30;0.30;;;1.40;99.90;;;;;;5034720;28;20174;-83
2021/11/23 07:46:39;;;;;;;0.00;0.00;;;1.30;99.90;;;;;;5055853;28;20210;-82
2021/11/23 07:49:05;;;;;;;0.70;0.70;;;1.50;99.90;;;;;;5033519;28;20300;-82
2021/11/23 07:51:31;;;;;;;0.47;0.47;;;1.70;99.90;;;;;;5034439;28;20268;-82
2021/11/23 07:53:57;;;;;;;0.10;0.10;;;1.70;99.90;;;;;;5031073;28;20192;-83
2021/11/23 07:56:23;;;;;;;0.73;0.70;;;1.90;99.90;;;;;;5043908;28;20182;-83
2021/11/23 07:58:48;;;;;;;0.30;0.30;;;2.00;99.90;;;;;;5031663;28;20176;-83
2021/11/23 08:01:14;;;;;;;0.30;0.30;;;2.10;99.90;;;;;;5025154;28;20177;-83
2021/11/23 08:03:40;;;;;;;0.20;0.20;;;2.20;99.90;;;;;;5035053;28;20181;-83
2021/11/23 08:06:07;;;;;;;0.70;0.60;;;2.20;99.90;;;;;;5029103;28;20645;-83
2021/11/23 08:08:34;;;;;;;0.10;0.10;;;2.10;99.90;;;;;;5024223;28;20549;-83
2021/11/23 08:11:00;;;;;;;0.20;0.20;;;2.40;99.90;;;;;;5042222;28;20270;-83
2021/11/23 08:13:26;;;;;;;0.10;0.10;;;2.50;99.90;;;;;;5032169;28;20711;-83
2021/11/23 08:15:52;;;;;;;0.20;0.20;;;2.70;99.90;;;;;;5036134;28;20186;-83
2021/11/23 08:18:17;;;;;;;0.20;0.20;;;2.90;99.90;;;;;;5036028;28;20260;-83
2021/11/23 08:20:44;;;;;;;0.33;0.33;;;2.80;99.90;;;;;;5038710;28;20259;-82
2021/11/23 08:23:10;;;;;;;3.10;0.50;;;2.70;99.90;;;;;;5033050;28;20203;-86
2021/11/23 08:25:39;;;;;;;0.10;0.10;;;2.70;99.90;;;;;;5033639;28;20637;-86
2021/11/23 08:28:16;;;;;;;0.10;0.10;;;3.00;99.90;;;;;;5037269;28;20206;-86
2021/11/23 08:30:42;;;;;;;0.10;0.10;;;3.50;99.90;;;;;;5026883;28;20194;-86
2021/11/23 08:33:18;;;;;;;0.10;0.10;;;3.80;99.90;;;;;;5032800;28;20205;-86
2021/11/23 08:35:44;;;;;;;0.10;0.10;;;3.60;99.90;;;;;;5033770;28;20667;-83
2021/11/23 08:38:11;;;;;;;0.30;0.30;;;3.80;99.90;;;;;;5027626;28;20621;-82
2021/11/23 08:40:38;;;;;;;0.00;0.00;;;4.20;99.90;;;;;;5032682;28;20269;-83
2021/11/23 08:43:08;;;;;;;0.17;0.17;;;4.50;99.90;;;;;;5032803;28;21030;-83
2021/11/23 08:45:33;;;;;;;0.20;0.20;;;4.80;99.90;;;;;;5037045;28;20206;-83
2021/11/23 08:47:59;;;;;;;0.10;0.10;;;5.00;99.90;;;;;;5030611;28;20252;-83
2021/11/23 08:50:26;;;;;;;0.10;0.10;;;4.90;99.90;;;;;;5032499;28;20237;-83
2021/11/23 08:52:51;;;;;;;0.20;0.20;;;4.90;99.90;;;;;;5033586;28;20750;-82
2021/11/23 08:55:17;;;;;;;0.53;0.53;;;5.10;99.90;;;;;;5028989;28;20271;-85
2021/11/23 08:57:42;;;;;;;0.30;0.30;;;5.40;99.90;;;;;;5028470;28;20206;-84
2021/11/23 09:00:15;;;;;;;0.10;0.10;;;5.60;99.90;;;;;;5030228;28;20235;-84
2021/11/23 09:02:43;;;;;;;0.40;0.40;;;5.20;99.90;;;;;;5028058;28;20599;-85
2021/11/23 09:05:10;;;;;;;0.30;0.30;;;5.20;99.90;;;;;;5035925;28;20616;-84
2021/11/23 09:07:37;;;;;;;0.73;0.20;;;5.50;99.90;;;;;;5026690;28;20190;-84
2021/11/23 09:10:03;;;;;;;0.57;0.57;;;5.80;99.90;;;;;;5030698;28;20184;-85
2021/11/23 09:12:29;;;;;;;0.10;0.10;;;6.10;99.90;;;;;;5038724;28;20186;-84
2021/11/23 09:14:54;;;;;;;0.20;0.20;;;6.30;99.90;;;;;;5030346;28;20607;-84
2021/11/23 09:17:20;;;;;;;0.10;0.10;;;6.40;99.90;;;;;;5035681;28;20224;-84
2021/11/23 09:19:45;;;;;;;0.57;0.40;;;6.60;99.90;;;;;;5044662;28;20174;-84
2021/11/23 09:22:11;;;;;;;0.30;0.30;;;6.60;99.90;;;;;;5018391;28;20253;-84
2021/11/23 09:24:37;;;;;;;0.20;0.20;;;6.80;99.90;;;;;;5033593;28;20181;-85
2021/11/23 09:27:02;;;;;;;0.23;0.23;;;6.80;99.90;;;;;;5025549;28;20202;-85
2021/11/23 09:29:28;;;;;;;2.53;0.33;;;6.90;99.90;;;;;;5024320;28;20185;-84
2021/11/23 09:31:53;;;;;;;0.20;0.20;;;7.00;99.90;;;;;;5032534;28;20186;-85
2021/11/23 09:34:22;;;;;;;0.10;0.10;;;7.00;99.90;;;;;;5047487;28;20191;-84
2021/11/23 09:36:49;;;;;;;0.47;0.47;;;7.20;99.90;;;;;;5027971;28;20204;-83
2021/11/23 09:39:15;;;;;;;0.10;0.10;;;7.10;99.90;;;;;;5050181;28;20189;-83
2021/11/23 09:41:41;;;;;;;1.13;0.40;;;7.10;99.90;;;;;;5033569;28;20170;-83
2021/11/23 09:44:07;;;;;;;0.63;0.63;;;7.10;99.90;;;;;;5043598;28;20688;-83
2021/11/23 09:46:39;;;;;;;0.33;0.13;;;7.10;99.90;;;;;;5033659;28;20220;-83
2021/11/23 09:49:06;;;;;;;0.87;0.30;;;7.20;99.90;;;;;;5034513;28;20203;-83
2021/11/23 09:51:33;;;;;;;0.50;0.50;;;7.20;99.90;;;;;;5033452;28;20180;-83
2021/11/23 09:54:02;;;;;;;1.10;0.67;;;7.20;99.90;;;;;;5032300;28;20208;-83
2021/11/23 09:56:28;;;;;;;0.10;0.10;;;7.00;99.90;;;;;;5060299;28;20572;-83
2021/11/23 09:58:57;;;;;;;1.40;0.30;;;7.10;99.90;;;;;;5030402;28;20181;-83
2021/11/23 10:01:26;;;;;;;1.07;0.40;;;7.20;99.90;;;;;;5052396;28;20200;-83
2021/11/23 10:03:53;;;;;;;0.43;0.43;;;7.50;99.90;;;;;;5031958;28;20661;-83
2021/11/23 10:06:22;;;;;;;0.20;0.20;;;8.50;99.90;;;;;;5019943;28;20175;-83
2021/11/23 10:08:50;;;;;;;0.20;0.20;;;8.70;99.90;;;;;;5026872;28;20298;-83
2021/11/23 10:11:30;;;;;;;0.40;0.40;;;9.00;99.90;;;;;;5031771;28;20174;-83
2021/11/23 10:14:04;;;;;;;0.10;0.10;;;9.40;99.90;;;;;;5026341;28;20236;-83
2021/11/23 10:16:42;;;;;;;0.50;0.50;;;9.60;99.90;;;;;;5045776;28;20470;-83
2021/11/23 10:19:09;;;;;;;0.93;0.30;;;10.00;99.90;;;;;;5023596;28;20539;-83
2021/11/23 10:21:36;;;;;;;0.40;0.40;;;9.80;99.90;;;;;;5035542;28;20225;-83
2021/11/23 10:24:02;;;;;;;0.50;0.50;;;9.20;99.90;;;;;;5032585;28;20227;-83
2021/11/23 10:26:30;;;;;;;0.30;0.30;;;8.70;99.90;;;;;;5033253;28;20630;-83
2021/11/23 10:29:03;;;;;;;0.17;0.17;;;8.50;99.90;;;;;;5029746;28;20178;-83
2021/11/23 10:31:41;;;;;;;0.53;0.47;;;8.50;99.90;;;;;;5028177;28;20209;-82
2021/11/23 10:34:09;;;;;;;0.30;0.30;;;8.60;99.90;;;;;;5037426;28;20169;-82
2021/11/23 10:36:38;;;;;;;0.57;0.20;;;8.60;99.90;;;;;;5027766;28;20304;-82
2021/11/23 10:39:05;;;;;;;0.47;0.47;;;8.70;99.90;;;;;;5029462;28;20175;-82
2021/11/23 10:41:31;;;;;;;1.13;0.63;;;8.80;99.90;;;;;;5031536;28;20196;-83
2021/11/23 10:43:56;;;;;;;0.30;0.30;;;8.70;99.90;;;;;;5039696;28;20182;-82
2021/11/23 10:46:22;;;;;;;0.10;0.10;;;8.60;99.90;;;;;;5050869;28;20164;-82
2021/11/23 10:48:57;;;;;;;1.47;0.73;;;8.70;99.90;;;;;;5036596;28;20195;-82
2021/11/23 10:51:25;;;;;;;0.20;0.20;;;8.70;99.90;;;;;;5053778;28;20229;-82
2021/11/23 10:53:51;;;;;;;0.30;0.30;;;8.70;99.90;;;;;;5039725;28;20197;-82
2021/11/23 10:56:19;;;;;;;0.20;0.20;;;8.80;99.90;;;;;;5031539;28;20646;-82
2021/11/23 10:58:48;;;;;;;0.30;0.30;;;8.90;99.90;;;;;;5037859;28;20265;-83
2021/11/23 11:01:18;;;;;;;0.20;0.20;;;9.00;99.90;;;;;;5030333;28;20173;-83
2021/11/23 11:03:44;;;;;;;0.43;0.43;;;9.00;99.90;;;;;;5027933;28;20655;-82
2021/11/23 11:06:10;;;;;;;0.40;0.40;;;9.00;99.90;;;;;;5027056;28;20189;-84
2021/11/23 11:08:41;;;;;;;0.47;0.40;;;9.00;99.90;;;;;;5030170;28;20598;-83
2021/11/23 11:11:15;;;;;;;0.10;0.10;;;9.00;99.90;;;;;;5048365;28;20701;-83
2021/11/23 11:13:47;;;;;;;0.47;0.47;;;9.20;99.90;;;;;;5045788;28;20162;-83
2021/11/23 11:16:14;;;;;;;0.20;0.10;;;9.20;99.90;;;;;;5053112;28;20179;-83
2021/11/23 11:18:40;;;;;;;0.20;0.20;;;9.30;99.90;;;;;;5028017;28;20232;-84
2021/11/23 11:21:05;;;;;;;0.10;0.10;;;9.40;99.90;;;;;;5031805;28;20233;-83
2021/11/23 11:23:44;;;;;;;0.30;0.30;;;9.50;99.90;;;;;;5024116;28;20180;-84
2021/11/23 11:28:43;;;;;;;0.30;0.20;;;9.30;99.90;;;;;;5045171;28;20182;-83
2021/11/23 11:31:29;;;;;;;0.20;0.20;;;9.50;99.90;;;;;;5035174;28;20217;-83
2021/11/23 11:34:24;;;;;;;0.30;0.30;;;9.30;99.90;;;;;;5034940;28;20271;-84
2021/11/23 11:37:00;;;;;;;0.20;0.20;;;9.40;99.90;;;;;;5030339;28;20214;-84
2021/11/23 11:39:38;;;;;;;0.20;0.20;;;9.50;99.90;;;;;;5035133;28;20266;-83
2021/11/23 11:42:10;;;;;;;0.30;0.30;;;9.60;99.90;;;;;;5035372;28;20316;-84
2021/11/23 11:44:37;;;;;;;0.13;0.13;;;9.60;99.90;;;;;;5036093;28;20265;-83
2021/11/23 11:47:11;;;;;;;1.70;0.40;;;9.70;99.90;;;;;;5036160;28;20274;-83
2021/11/23 11:49:49;;;;;;;1.00;0.20;;;9.70;99.90;;;;;;5029519;28;20734;-83
2021/11/23 11:52:15;;;;;;;0.40;0.40;;;9.80;99.90;;;;;;5043952;28;20716;-83
2021/11/23 11:54:41;;;;;;;0.20;0.20;;;9.90;99.90;;;;;;5035105;28;20175;-83
2021/11/23 11:57:29;;;;;;;0.60;0.60;;;10.00;99.90;;;;;;5034348;28;20238;-83
2021/11/23 11:59:54;;;;;;;0.20;0.20;;;10.10;99.90;;;;;;5026098;28;20195;-84
2021/11/23 12:02:22;;;;;;;0.10;0.10;;;10.20;99.90;;;;;;5030166;28;20179;-85
2021/11/23 12:04:58;;;;;;;0.33;0.33;;;10.20;99.90;;;;;;5033752;28;20233;-85
2021/11/23 12:07:37;;;;;;;0.00;0.00;;;10.30;99.90;;;;;;5032374;28;20577;-86
2021/11/23 12:10:26;;;;;;;0.53;0.53;;;10.40;99.90;;;;;;5034040;28;20212;-85
2021/11/23 12:13:06;;;;;;;0.10;0.10;;;10.50;99.90;;;;;;5037353;28;20183;-85
2021/11/23 12:16:06;;;;;;;0.10;0.10;;;10.50;99.90;;;;;;5031362;28;20187;-85
2021/11/23 12:18:44;;;;;;;0.50;0.50;;;9.80;99.90;;;;;;5044251;28;20241;-85
2021/11/23 12:21:13;;;;;;;0.83;0.83;;;9.60;99.90;;;;;;5040332;28;20180;-85
2021/11/23 12:23:40;;;;;;;0.70;0.30;;;9.90;99.90;;;;;;5033141;28;20192;-85
2021/11/23 12:26:12;;;;;;;0.17;0.17;;;10.30;99.90;;;;;;5052013;28;20189;-85
2021/11/23 12:28:39;;;;;;;0.00;0.00;;;10.50;99.90;;;;;;5040968;28;20189;-85
2021/11/23 12:31:11;;;;;;;0.30;0.30;;;10.70;99.90;;;;;;5043305;28;20215;-85
2021/11/23 12:33:52;;;;;;;0.20;0.20;;;10.40;99.90;;;;;;5035574;28;20178;-86
2021/11/23 12:36:23;;;;;;;1.37;0.60;;;10.40;99.90;;;;;;5028445;28;20193;-85
2021/11/23 12:38:52;;;;;;;0.10;0.10;;;10.70;99.90;;;;;;5034780;28;20184;-85
2021/11/23 12:41:23;;;;;;;0.23;0.20;;;11.00;99.90;;;;;;5032050;28;20586;-85
2021/11/23 12:43:50;;;;;;;0.43;0.43;;;11.20;99.90;;;;;;5026162;28;20239;-84
2021/11/23 12:46:22;;;;;;;1.90;0.80;;;11.10;99.90;;;;;;5051748;28;20199;-85
2021/11/23 12:48:51;;;;;;;0.47;0.47;;;10.60;99.90;;;;;;5032442;28;20239;-85
2021/11/23 12:51:23;;;;;;;3.47;0.47;;;10.50;99.90;;;;;;5033939;28;20181;-85
2021/11/23 12:53:58;;;;;;;0.37;0.37;;;10.60;99.90;;;;;;5037473;28;20177;-85
2021/11/23 12:56:43;;;;;;;0.37;0.30;;;10.40;99.90;;;;;;5051790;28;20173;-85
2021/11/23 12:59:40;;;;;;;0.00;0.00;;;10.40;99.90;;;;;;5035281;28;20186;-85
2021/11/23 13:02:31;;;;;;;0.80;0.20;;;10.50;99.90;;;;;;5037270;28;20177;-85
2021/11/23 13:05:04;;;;;;;0.57;0.57;;;10.60;99.90;;;;;;5035953;28;20526;-84